sensor_id;sensor_type;location;lat;lon;timestamp;pressure;altitude;pressure_sealevel;temperature
72054;BMP280;59918;51.280;7.950;2023-02-28T00:00:22;99211.44;;;-2.38
72054;BMP280;59918;51.280;7.950;2023-02-28T00:02:47;99211.72;;;-2.43
72054;BMP280;59918;51.280;7.950;2023-02-28T00:05:15;99218.63;;;-2.46
72054;BMP280;59918;51.280;7.950;2023-02-28T00:07:41;99219.72;;;-2.50
72054;BMP280;59918;51.280;7.950;2023-02-28T00:10:10;99215.41;;;-2.48
72054;BMP280;59918;51.280;7.950;2023-02-28T00:12:37;99207.66;;;-2.45
72054;BMP280;59918;51.280;7.950;2023-02-28T00:15:06;99206.13;;;-2.34
72054;BMP280;59918;51.280;7.950;2023-02-28T00:17:31;99210.13;;;-2.18
72054;BMP280;59918;51.280;7.950;2023-02-28T00:19:56;99197.50;;;-2.04
72054;BMP280;59918;51.280;7.950;2023-02-28T00:22:22;99203.59;;;-1.94
72054;BMP280;59918;51.280;7.950;2023-02-28T00:24:49;99192.41;;;-1.90
72054;BMP280;59918;51.280;7.950;2023-02-28T00:27:15;99187.97;;;-1.99
72054;BMP280;59918;51.280;7.950;2023-02-28T00:29:40;99195.34;;;-2.10
72054;BMP280;59918;51.280;7.950;2023-02-28T00:32:06;99196.81;;;-2.19
72054;BMP280;59918;51.280;7.950;2023-02-28T00:34:32;99191.34;;;-2.26
72054;BMP280;59918;51.280;7.950;2023-02-28T00:36:57;99192.50;;;-2.31
72054;BMP280;59918;51.280;7.950;2023-02-28T00:39:22;99190.34;;;-2.37
72054;BMP280;59918;51.280;7.950;2023-02-28T00:41:48;99196.47;;;-2.41
72054;BMP280;59918;51.280;7.950;2023-02-28T00:44:13;99199.00;;;-2.41
72054;BMP280;59918;51.280;7.950;2023-02-28T00:46:38;99193.16;;;-2.42
72054;BMP280;59918;51.280;7.950;2023-02-28T00:49:04;99203.78;;;-2.37
72054;BMP280;59918;51.280;7.950;2023-02-28T00:51:29;99197.19;;;-2.25
72054;BMP280;59918;51.280;7.950;2023-02-28T00:53:54;99200.06;;;-2.18
72054;BMP280;59918;51.280;7.950;2023-02-28T00:56:20;99197.50;;;-2.04
72054;BMP280;59918;51.280;7.950;2023-02-28T00:58:45;99191.69;;;-1.92
72054;BMP280;59918;51.280;7.950;2023-02-28T01:01:10;99181.16;;;-1.84
72054;BMP280;59918;51.280;7.950;2023-02-28T01:03:35;99187.44;;;-1.78
72054;BMP280;59918;51.280;7.950;2023-02-28T01:06:01;99190.97;;;-1.80
72054;BMP280;59918;51.280;7.950;2023-02-28T01:08:26;99191.16;;;-1.83
72054;BMP280;59918;51.280;7.950;2023-02-28T01:10:52;99187.91;;;-1.85
72054;BMP280;59918;51.280;7.950;2023-02-28T01:13:18;99199.72;;;-1.85
72054;BMP280;59918;51.280;7.950;2023-02-28T01:15:50;99192.78;;;-1.82
72054;BMP280;59918;51.280;7.950;2023-02-28T01:18:15;99183.78;;;-1.86
72054;BMP280;59918;51.280;7.950;2023-02-28T01:20:40;99190.66;;;-1.88
72054;BMP280;59918;51.280;7.950;2023-02-28T01:23:06;99183.34;;;-1.92
72054;BMP280;59918;51.280;7.950;2023-02-28T01:25:34;99185.22;;;-1.96
72054;BMP280;59918;51.280;7.950;2023-02-28T01:27:59;99191.56;;;-2.03
72054;BMP280;59918;51.280;7.950;2023-02-28T01:30:25;99183.22;;;-2.03
72054;BMP280;59918;51.280;7.950;2023-02-28T01:32:50;99185.63;;;-2.02
72054;BMP280;59918;51.280;7.950;2023-02-28T01:35:15;99193.72;;;-1.97
72054;BMP280;59918;51.280;7.950;2023-02-28T01:37:40;99182.34;;;-1.90
72054;BMP280;59918;51.280;7.950;2023-02-28T01:40:06;99189.34;;;-1.81
72054;BMP280;59918;51.280;7.950;2023-02-28T01:42:31;99188.97;;;-1.75
72054;BMP280;59918;51.280;7.950;2023-02-28T01:45:26;99193.72;;;-1.71
72054;BMP280;59918;51.280;7.950;2023-02-28T01:47:55;99183.44;;;-1.68
72054;BMP280;59918;51.280;7.950;2023-02-28T01:50:25;99185.16;;;-1.68
72054;BMP280;59918;51.280;7.950;2023-02-28T01:52:52;99176.34;;;-1.75
72054;BMP280;59918;51.280;7.950;2023-02-28T01:55:20;99172.59;;;-1.82
72054;BMP280;59918;51.280;7.950;2023-02-28T01:57:49;99172.38;;;-1.91
72054;BMP280;59918;51.280;7.950;2023-02-28T02:00:20;99179.69;;;-2.01
72054;BMP280;59918;51.280;7.950;2023-02-28T02:02:49;99182.50;;;-2.05
72054;BMP280;59918;51.280;7.950;2023-02-28T02:05:19;99185.09;;;-2.07
72054;BMP280;59918;51.280;7.950;2023-02-28T02:07:48;99176.03;;;-2.09
72054;BMP280;59918;51.280;7.950;2023-02-28T02:10:19;99172.78;;;-2.11
72054;BMP280;59918;51.280;7.950;2023-02-28T02:42:27;99172.72;;;-2.37
72054;BMP280;59918;51.280;7.950;2023-02-28T02:44:59;99179.41;;;-2.36
72054;BMP280;59918;51.280;7.950;2023-02-28T02:47:28;99176.97;;;-2.38
72054;BMP280;59918;51.280;7.950;2023-02-28T02:49:57;99173.22;;;-2.45
72054;BMP280;59918;51.280;7.950;2023-02-28T02:52:28;99183.91;;;-2.55
72054;BMP280;59918;51.280;7.950;2023-02-28T02:54:55;99181.31;;;-2.81
72054;BMP280;59918;51.280;7.950;2023-02-28T02:57:27;99184.09;;;-2.86
72054;BMP280;59918;51.280;7.950;2023-02-28T02:59:56;99187.84;;;-2.92
72054;BMP280;59918;51.280;7.950;2023-02-28T03:02:23;99187.41;;;-2.99
72054;BMP280;59918;51.280;7.950;2023-02-28T03:04:52;99185.16;;;-3.03
72054;BMP280;59918;51.280;7.950;2023-02-28T03:07:17;99185.50;;;-3.09
72054;BMP280;59918;51.280;7.950;2023-02-28T03:09:51;99192.41;;;-3.13
72054;BMP280;59918;51.280;7.950;2023-02-28T03:12:16;99187.00;;;-3.21
72054;BMP280;59918;51.280;7.950;2023-02-28T03:14:54;99187.25;;;-3.25
72054;BMP280;59918;51.280;7.950;2023-02-28T03:17:52;99191.91;;;-3.33
72054;BMP280;59918;51.280;7.950;2023-02-28T03:23:13;99194.22;;;-3.44
72054;BMP280;59918;51.280;7.950;2023-02-28T03:31:07;99191.53;;;-3.70
72054;BMP280;59918;51.280;7.950;2023-02-28T03:33:50;99188.91;;;-3.68
72054;BMP280;59918;51.280;7.950;2023-02-28T03:36:19;99186.50;;;-3.70
72054;BMP280;59918;51.280;7.950;2023-02-28T03:41:32;99186.72;;;-3.74
72054;BMP280;59918;51.280;7.950;2023-02-28T03:44:06;99181.72;;;-3.74
72054;BMP280;59918;51.280;7.950;2023-02-28T03:46:36;99182.03;;;-3.80
72054;BMP280;59918;51.280;7.950;2023-02-28T03:49:15;99188.31;;;-3.87
72054;BMP280;59918;51.280;7.950;2023-02-28T03:51:42;99191.16;;;-3.93
72054;BMP280;59918;51.280;7.950;2023-02-28T03:54:13;99187.81;;;-3.94
72054;BMP280;59918;51.280;7.950;2023-02-28T03:56:45;99196.06;;;-3.92
72054;BMP280;59918;51.280;7.950;2023-02-28T03:59:21;99192.94;;;-3.95
72054;BMP280;59918;51.280;7.950;2023-02-28T04:01:50;99191.47;;;-3.99
72054;BMP280;59918;51.280;7.950;2023-02-28T04:04:16;99192.53;;;-4.03
72054;BMP280;59918;51.280;7.950;2023-02-28T04:06:43;99197.72;;;-4.06
72054;BMP280;59918;51.280;7.950;2023-02-28T04:09:11;99196.25;;;-4.10
72054;BMP280;59918;51.280;7.950;2023-02-28T04:11:38;99198.22;;;-4.15
72054;BMP280;59918;51.280;7.950;2023-02-28T04:14:07;99203.31;;;-4.16
72054;BMP280;59918;51.280;7.950;2023-02-28T04:16:34;99196.91;;;-4.22
72054;BMP280;59918;51.280;7.950;2023-02-28T04:19:00;99197.97;;;-4.26
72054;BMP280;59918;51.280;7.950;2023-02-28T04:21:25;99203.88;;;-4.27
72054;BMP280;59918;51.280;7.950;2023-02-28T04:23:51;99194.78;;;-4.29
72054;BMP280;59918;51.280;7.950;2023-02-28T04:26:16;99194.16;;;-4.33
72054;BMP280;59918;51.280;7.950;2023-02-28T04:28:41;99198.59;;;-4.37
72054;BMP280;59918;51.280;7.950;2023-02-28T04:31:06;99200.38;;;-4.39
72054;BMP280;59918;51.280;7.950;2023-02-28T04:33:32;99202.16;;;-4.41
72054;BMP280;59918;51.280;7.950;2023-02-28T04:36:06;99203.03;;;-4.42
72054;BMP280;59918;51.280;7.950;2023-02-28T04:38:38;99209.84;;;-4.44
72054;BMP280;59918;51.280;7.950;2023-02-28T04:41:03;99210.47;;;-4.56
72054;BMP280;59918;51.280;7.950;2023-02-28T04:43:29;99211.94;;;-4.52
72054;BMP280;59918;51.280;7.950;2023-02-28T04:45:56;99206.03;;;-4.51
72054;BMP280;59918;51.280;7.950;2023-02-28T04:48:21;99213.72;;;-4.54
72054;BMP280;59918;51.280;7.950;2023-02-28T04:50:46;99205.44;;;-4.56
72054;BMP280;59918;51.280;7.950;2023-02-28T04:53:11;99207.31;;;-4.60
72054;BMP280;59918;51.280;7.950;2023-02-28T04:55:37;99208.38;;;-4.64
72054;BMP280;59918;51.280;7.950;2023-02-28T04:58:02;99209.41;;;-4.68
72054;BMP280;59918;51.280;7.950;2023-02-28T05:00:27;99208.00;;;-4.73
72054;BMP280;59918;51.280;7.950;2023-02-28T05:02:52;99200.72;;;-4.77
72054;BMP280;59918;51.280;7.950;2023-02-28T05:05:18;99207.59;;;-4.81
72054;BMP280;59918;51.280;7.950;2023-02-28T05:07:44;99206.06;;;-4.83
72054;BMP280;59918;51.280;7.950;2023-02-28T05:10:10;99208.69;;;-4.86
72054;BMP280;59918;51.280;7.950;2023-02-28T05:12:36;99211.28;;;-4.88
72054;BMP280;59918;51.280;7.950;2023-02-28T05:15:01;99212.25;;;-4.90
72054;BMP280;59918;51.280;7.950;2023-02-28T05:17:26;99212.31;;;-4.92
72054;BMP280;59918;51.280;7.950;2023-02-28T05:19:51;99210.72;;;-4.93
72054;BMP280;59918;51.280;7.950;2023-02-28T05:22:17;99212.47;;;-4.95
72054;BMP280;59918;51.280;7.950;2023-02-28T05:24:42;99208.44;;;-4.97
72054;BMP280;59918;51.280;7.950;2023-02-28T05:27:08;99211.88;;;-5.00
72054;BMP280;59918;51.280;7.950;2023-02-28T05:29:33;99217.88;;;-5.02
72054;BMP280;59918;51.280;7.950;2023-02-28T05:31:58;99226.31;;;-5.03
72054;BMP280;59918;51.280;7.950;2023-02-28T05:34:23;99224.72;;;-5.06
72054;BMP280;59918;51.280;7.950;2023-02-28T05:36:49;99225.56;;;-5.05
72054;BMP280;59918;51.280;7.950;2023-02-28T05:39:14;99224.72;;;-5.06
72054;BMP280;59918;51.280;7.950;2023-02-28T05:41:43;99220.53;;;-5.05
72054;BMP280;59918;51.280;7.950;2023-02-28T05:44:09;99226.50;;;-5.08
72054;BMP280;59918;51.280;7.950;2023-02-28T05:46:34;99223.25;;;-5.09
72054;BMP280;59918;51.280;7.950;2023-02-28T05:48:59;99220.81;;;-5.11
72054;BMP280;59918;51.280;7.950;2023-02-28T05:51:25;99223.41;;;-5.12
72054;BMP280;59918;51.280;7.950;2023-02-28T05:53:50;99225.78;;;-5.09
72054;BMP280;59918;51.280;7.950;2023-02-28T05:56:15;99222.28;;;-5.07
72054;BMP280;59918;51.280;7.950;2023-02-28T05:58:41;99228.66;;;-5.00
72054;BMP280;59918;51.280;7.950;2023-02-28T06:01:45;99226.81;;;-4.97
72054;BMP280;59918;51.280;7.950;2023-02-28T06:04:10;99224.84;;;-4.92
72054;BMP280;59918;51.280;7.950;2023-02-28T06:06:36;99224.00;;;-4.91
72054;BMP280;59918;51.280;7.950;2023-02-28T06:09:01;99221.41;;;-4.89
72054;BMP280;59918;51.280;7.950;2023-02-28T06:11:29;99226.94;;;-4.83
72054;BMP280;59918;51.280;7.950;2023-02-28T06:13:55;99229.06;;;-4.75
72054;BMP280;59918;51.280;7.950;2023-02-28T06:16:21;99231.34;;;-4.71
72054;BMP280;59918;51.280;7.950;2023-02-28T06:18:46;99233.53;;;-4.65
72054;BMP280;59918;51.280;7.950;2023-02-28T06:21:12;99239.28;;;-4.63
72054;BMP280;59918;51.280;7.950;2023-02-28T06:23:37;99235.88;;;-4.62
72054;BMP280;59918;51.280;7.950;2023-02-28T06:26:02;99241.75;;;-4.62
72054;BMP280;59918;51.280;7.950;2023-02-28T06:28:28;99246.75;;;-4.62
72054;BMP280;59918;51.280;7.950;2023-02-28T06:30:53;99239.38;;;-4.65
72054;BMP280;59918;51.280;7.950;2023-02-28T06:33:18;99238.69;;;-4.68
72054;BMP280;59918;51.280;7.950;2023-02-28T06:35:46;99247.28;;;-4.72
72054;BMP280;59918;51.280;7.950;2023-02-28T06:38:12;99240.78;;;-4.76
72054;BMP280;59918;51.280;7.950;2023-02-28T06:40:37;99245.97;;;-4.79
72054;BMP280;59918;51.280;7.950;2023-02-28T06:43:03;99243.47;;;-4.79
72054;BMP280;59918;51.280;7.950;2023-02-28T06:45:29;99258.53;;;-4.79
72054;BMP280;59918;51.280;7.950;2023-02-28T06:47:54;99256.00;;;-4.79
72054;BMP280;59918;51.280;7.950;2023-02-28T06:50:20;99247.69;;;-4.79
72054;BMP280;59918;51.280;7.950;2023-02-28T06:52:45;99267.66;;;-4.78
72054;BMP280;59918;51.280;7.950;2023-02-28T06:55:13;99266.78;;;-4.77
72054;BMP280;59918;51.280;7.950;2023-02-28T06:57:41;99265.16;;;-4.78
72054;BMP280;59918;51.280;7.950;2023-02-28T07:00:08;99274.38;;;-4.78
72054;BMP280;59918;51.280;7.950;2023-02-28T07:02:35;99271.94;;;-4.80
72054;BMP280;59918;51.280;7.950;2023-02-28T07:05:00;99276.03;;;-4.77
72054;BMP280;59918;51.280;7.950;2023-02-28T07:07:25;99278.44;;;-4.76
72054;BMP280;59918;51.280;7.950;2023-02-28T07:09:50;99278.38;;;-4.74
72054;BMP280;59918;51.280;7.950;2023-02-28T07:12:16;99278.31;;;-4.73
72054;BMP280;59918;51.280;7.950;2023-02-28T07:14:41;99278.22;;;-4.72
72054;BMP280;59918;51.280;7.950;2023-02-28T07:17:08;99282.34;;;-4.71
72054;BMP280;59918;51.280;7.950;2023-02-28T07:19:33;99278.13;;;-4.70
72054;BMP280;59918;51.280;7.950;2023-02-28T07:21:58;99282.22;;;-4.68
72054;BMP280;59918;51.280;7.950;2023-02-28T07:24:24;99282.03;;;-4.65
72054;BMP280;59918;51.280;7.950;2023-02-28T07:26:49;99276.88;;;-4.62
72054;BMP280;59918;51.280;7.950;2023-02-28T07:29:14;99280.94;;;-4.59
72054;BMP280;59918;51.280;7.950;2023-02-28T07:31:39;99281.50;;;-4.54
72054;BMP280;59918;51.280;7.950;2023-02-28T07:34:05;99279.72;;;-4.52
72054;BMP280;59918;51.280;7.950;2023-02-28T07:36:30;99282.75;;;-4.46
72054;BMP280;59918;51.280;7.950;2023-02-28T07:38:55;99278.97;;;-4.37
72054;BMP280;59918;51.280;7.950;2023-02-28T07:41:21;99280.94;;;-4.27
72054;BMP280;59918;51.280;7.950;2023-02-28T07:43:47;99279.50;;;-4.16
72054;BMP280;59918;51.280;7.950;2023-02-28T07:46:14;99275.63;;;-3.91
72054;BMP280;59918;51.280;7.950;2023-02-28T07:48:39;99270.03;;;-3.80
72054;BMP280;59918;51.280;7.950;2023-02-28T07:51:05;99276.50;;;-3.76
72054;BMP280;59918;51.280;7.950;2023-02-28T07:53:30;99275.31;;;-3.69
72054;BMP280;59918;51.280;7.950;2023-02-28T07:55:56;99274.81;;;-3.61
72054;BMP280;59918;51.280;7.950;2023-02-28T07:58:22;99275.94;;;-3.51
72054;BMP280;59918;51.280;7.950;2023-02-28T08:00:48;99275.25;;;-3.39
72054;BMP280;59918;51.280;7.950;2023-02-28T08:03:13;99272.78;;;-3.25
72054;BMP280;59918;51.280;7.950;2023-02-28T08:05:39;99270.78;;;-2.90
72054;BMP280;59918;51.280;7.950;2023-02-28T08:08:05;99275.44;;;-2.27
72054;BMP280;59918;51.280;7.950;2023-02-28T08:10:30;99265.97;;;-1.70
72054;BMP280;59918;51.280;7.950;2023-02-28T08:12:55;99266.25;;;-1.22
72054;BMP280;59918;51.280;7.950;2023-02-28T08:15:21;99265.53;;;-0.85
72054;BMP280;59918;51.280;7.950;2023-02-28T08:17:46;99265.97;;;-0.54
72054;BMP280;59918;51.280;7.950;2023-02-28T08:20:11;99258.97;;;-0.26
72054;BMP280;59918;51.280;7.950;2023-02-28T08:22:37;99251.13;;;0.01
72054;BMP280;59918;51.280;7.950;2023-02-28T08:25:02;99244.97;;;0.29
72054;BMP280;59918;51.280;7.950;2023-02-28T08:27:27;99249.72;;;0.56
72054;BMP280;59918;51.280;7.950;2023-02-28T08:29:53;99248.59;;;0.83
72054;BMP280;59918;51.280;7.950;2023-02-28T08:32:18;99250.75;;;1.11
72054;BMP280;59918;51.280;7.950;2023-02-28T08:34:43;99249.44;;;1.40
72054;BMP280;59918;51.280;7.950;2023-02-28T08:37:08;99243.91;;;1.67
72054;BMP280;59918;51.280;7.950;2023-02-28T08:39:35;99244.50;;;1.92
72054;BMP280;59918;51.280;7.950;2023-02-28T08:42:00;99242.88;;;2.02
72054;BMP280;59918;51.280;7.950;2023-02-28T08:44:25;99249.19;;;2.29
72054;BMP280;59918;51.280;7.950;2023-02-28T08:46:50;99239.97;;;2.59
72054;BMP280;59918;51.280;7.950;2023-02-28T08:49:16;99234.53;;;2.64
72054;BMP280;59918;51.280;7.950;2023-02-28T08:51:41;99240.16;;;2.78
72054;BMP280;59918;51.280;7.950;2023-02-28T08:54:07;99240.63;;;2.72
72054;BMP280;59918;51.280;7.950;2023-02-28T08:56:33;99243.84;;;2.74
72054;BMP280;59918;51.280;7.950;2023-02-28T08:58:58;99243.81;;;2.85
72054;BMP280;59918;51.280;7.950;2023-02-28T09:01:26;99244.38;;;3.09
72054;BMP280;59918;51.280;7.950;2023-02-28T09:03:51;99251.44;;;3.05
72054;BMP280;59918;51.280;7.950;2023-02-28T09:06:18;99264.09;;;2.96
72054;BMP280;59918;51.280;7.950;2023-02-28T09:08:44;99250.22;;;3.00
72054;BMP280;59918;51.280;7.950;2023-02-28T09:11:10;99251.50;;;3.55
72054;BMP280;59918;51.280;7.950;2023-02-28T09:13:35;99242.63;;;3.79
72054;BMP280;59918;51.280;7.950;2023-02-28T09:16:02;99250.19;;;3.61
72054;BMP280;59918;51.280;7.950;2023-02-28T09:18:28;99236.81;;;3.38
72054;BMP280;59918;51.280;7.950;2023-02-28T09:20:54;99234.25;;;3.38
72054;BMP280;59918;51.280;7.950;2023-02-28T09:23:19;99239.28;;;3.49
72054;BMP280;59918;51.280;7.950;2023-02-28T09:25:54;99231.09;;;3.75
72054;BMP280;59918;51.280;7.950;2023-02-28T09:28:20;99233.63;;;3.96
72054;BMP280;59918;51.280;7.950;2023-02-28T09:30:48;99235.22;;;3.97
72054;BMP280;59918;51.280;7.950;2023-02-28T09:33:14;99234.66;;;3.93
72054;BMP280;59918;51.280;7.950;2023-02-28T09:35:40;99224.91;;;3.98
72054;BMP280;59918;51.280;7.950;2023-02-28T09:38:05;99226.09;;;3.94
72054;BMP280;59918;51.280;7.950;2023-02-28T09:40:31;99229.31;;;3.96
72054;BMP280;59918;51.280;7.950;2023-02-28T09:42:57;99233.09;;;4.01
72054;BMP280;59918;51.280;7.950;2023-02-28T09:45:28;99234.00;;;4.00
72054;BMP280;59918;51.280;7.950;2023-02-28T09:47:56;99239.75;;;4.41
72054;BMP280;59918;51.280;7.950;2023-02-28T09:52:52;99224.31;;;5.82
72054;BMP280;59918;51.280;7.950;2023-02-28T09:55:37;99221.25;;;5.60
72054;BMP280;59918;51.280;7.950;2023-02-28T09:58:05;99223.69;;;6.51
72054;BMP280;59918;51.280;7.950;2023-02-28T10:00:37;99221.19;;;7.61
72054;BMP280;59918;51.280;7.950;2023-02-28T10:05:59;99217.06;;;8.08
72054;BMP280;59918;51.280;7.950;2023-02-28T10:08:31;99210.31;;;8.25
72054;BMP280;59918;51.280;7.950;2023-02-28T10:11:00;99223.50;;;7.46
72054;BMP280;59918;51.280;7.950;2023-02-28T10:13:34;99220.69;;;7.07
72054;BMP280;59918;51.280;7.950;2023-02-28T10:16:10;99210.00;;;7.36
72054;BMP280;59918;51.280;7.950;2023-02-28T10:18:56;99217.81;;;7.10
72054;BMP280;59918;51.280;7.950;2023-02-28T10:21:36;99213.28;;;7.04
72054;BMP280;59918;51.280;7.950;2023-02-28T10:24:16;99213.66;;;8.25
72054;BMP280;59918;51.280;7.950;2023-02-28T10:26:45;99194.88;;;10.73
72054;BMP280;59918;51.280;7.950;2023-02-28T10:29:12;99190.53;;;9.83
72054;BMP280;59918;51.280;7.950;2023-02-28T10:31:38;99195.50;;;9.77
72054;BMP280;59918;51.280;7.950;2023-02-28T10:34:03;99188.84;;;11.39
72054;BMP280;59918;51.280;7.950;2023-02-28T10:36:28;99178.91;;;12.42
72054;BMP280;59918;51.280;7.950;2023-02-28T10:38:54;99167.09;;;13.77
72054;BMP280;59918;51.280;7.950;2023-02-28T10:41:42;99167.69;;;15.30
72054;BMP280;59918;51.280;7.950;2023-02-28T10:44:25;99161.47;;;16.12
72054;BMP280;59918;51.280;7.950;2023-02-28T10:46:51;99156.75;;;17.01
72054;BMP280;59918;51.280;7.950;2023-02-28T10:49:24;99162.13;;;17.06
72054;BMP280;59918;51.280;7.950;2023-02-28T10:51:54;99154.84;;;17.15
72054;BMP280;59918;51.280;7.950;2023-02-28T10:54:28;99160.56;;;17.29
72054;BMP280;59918;51.280;7.950;2023-02-28T10:57:23;99137.47;;;18.10
72054;BMP280;59918;51.280;7.950;2023-02-28T10:59:53;99149.00;;;18.32
72054;BMP280;59918;51.280;7.950;2023-02-28T11:02:35;99154.50;;;17.11
72054;BMP280;59918;51.280;7.950;2023-02-28T11:05:01;99172.09;;;13.79
72054;BMP280;59918;51.280;7.950;2023-02-28T11:07:27;99193.03;;;11.40
72054;BMP280;59918;51.280;7.950;2023-02-28T11:09:54;99161.97;;;12.96
72054;BMP280;59918;51.280;7.950;2023-02-28T11:12:25;99150.16;;;15.19
72054;BMP280;59918;51.280;7.950;2023-02-28T11:15:04;99135.56;;;17.28
72054;BMP280;59918;51.280;7.950;2023-02-28T11:17:31;99141.28;;;18.55
72054;BMP280;59918;51.280;7.950;2023-02-28T11:20:04;99149.47;;;16.92
72054;BMP280;59918;51.280;7.950;2023-02-28T11:22:33;99149.31;;;17.11
72054;BMP280;59918;51.280;7.950;2023-02-28T11:25:03;99137.38;;;18.34
72054;BMP280;59918;51.280;7.950;2023-02-28T11:29:58;99139.94;;;19.83
72054;BMP280;59918;51.280;7.950;2023-02-28T11:32:28;99145.56;;;17.85
72054;BMP280;59918;51.280;7.950;2023-02-28T11:35:24;99150.69;;;16.15
72054;BMP280;59918;51.280;7.950;2023-02-28T11:37:51;99131.50;;;17.74
72054;BMP280;59918;51.280;7.950;2023-02-28T11:40:21;99134.00;;;18.45
72054;BMP280;59918;51.280;7.950;2023-02-28T11:42:50;99114.03;;;19.93
72054;BMP280;59918;51.280;7.950;2023-02-28T11:50:32;99130.75;;;19.47
72054;BMP280;59918;51.280;7.950;2023-02-28T12:12:02;99121.56;;;19.10
72054;BMP280;59918;51.280;7.950;2023-02-28T12:17:14;99109.19;;;21.76
72054;BMP280;59918;51.280;7.950;2023-02-28T12:19:50;99096.44;;;22.05
72054;BMP280;59918;51.280;7.950;2023-02-28T12:27:29;99084.88;;;24.27
72054;BMP280;59918;51.280;7.950;2023-02-28T12:30:00;99098.06;;;24.47
72054;BMP280;59918;51.280;7.950;2023-02-28T12:32:41;99085.88;;;24.21
72054;BMP280;59918;51.280;7.950;2023-02-28T12:37:47;99071.13;;;25.59
72054;BMP280;59918;51.280;7.950;2023-02-28T12:40:19;99068.91;;;25.90
72054;BMP280;59918;51.280;7.950;2023-02-28T12:42:49;99070.97;;;26.41
72054;BMP280;59918;51.280;7.950;2023-02-28T12:45:20;99055.81;;;26.56
72054;BMP280;59918;51.280;7.950;2023-02-28T12:47:50;99064.47;;;26.34
72054;BMP280;59918;51.280;7.950;2023-02-28T12:50:16;99055.47;;;26.68
72054;BMP280;59918;51.280;7.950;2023-02-28T12:52:51;99054.50;;;27.20
72054;BMP280;59918;51.280;7.950;2023-02-28T13:09:30;99022.88;;;28.53
72054;BMP280;59918;51.280;7.950;2023-02-28T13:11:56;99012.81;;;28.68
72054;BMP280;59918;51.280;7.950;2023-02-28T13:14:39;99024.16;;;28.87
72054;BMP280;59918;51.280;7.950;2023-02-28T13:19:34;99005.25;;;29.46
72054;BMP280;59918;51.280;7.950;2023-02-28T13:22:01;99005.63;;;29.67
72054;BMP280;59918;51.280;7.950;2023-02-28T13:24:41;98999.69;;;29.96
72054;BMP280;59918;51.280;7.950;2023-02-28T13:29:43;99001.19;;;29.89
72054;BMP280;59918;51.280;7.950;2023-02-28T13:34:38;99001.25;;;30.32
72054;BMP280;59918;51.280;7.950;2023-02-28T13:39:56;98995.28;;;31.00
72054;BMP280;59918;51.280;7.950;2023-02-28T13:55:37;98987.78;;;31.02
72054;BMP280;59918;51.280;7.950;2023-02-28T14:03:58;98963.09;;;31.65
72054;BMP280;59918;51.280;7.950;2023-02-28T14:06:38;98966.75;;;32.03
72054;BMP280;59918;51.280;7.950;2023-02-28T14:09:34;98966.06;;;31.47
72054;BMP280;59918;51.280;7.950;2023-02-28T14:15:43;98956.41;;;31.76
72054;BMP280;59918;51.280;7.950;2023-02-28T14:18:21;98964.53;;;32.05
72054;BMP280;59918;51.280;7.950;2023-02-28T14:20:48;98951.72;;;31.82
72054;BMP280;59918;51.280;7.950;2023-02-28T14:31:35;98952.50;;;32.16
72054;BMP280;59918;51.280;7.950;2023-02-28T14:36:58;98961.28;;;31.19
72054;BMP280;59918;51.280;7.950;2023-02-28T14:39:26;98967.56;;;30.63
72054;BMP280;59918;51.280;7.950;2023-02-28T14:41:52;98967.22;;;30.34
72054;BMP280;59918;51.280;7.950;2023-02-28T14:44:26;98969.13;;;30.64
72054;BMP280;59918;51.280;7.950;2023-02-28T14:46:54;98958.06;;;30.92
72054;BMP280;59918;51.280;7.950;2023-02-28T14:51:49;98955.16;;;31.10
72054;BMP280;59918;51.280;7.950;2023-02-28T14:54:16;98949.84;;;31.19
72054;BMP280;59918;51.280;7.950;2023-02-28T14:56:48;98949.63;;;31.37
72054;BMP280;59918;51.280;7.950;2023-02-28T14:59:27;98954.34;;;31.65
72054;BMP280;59918;51.280;7.950;2023-02-28T15:02:22;98959.78;;;31.35
72054;BMP280;59918;51.280;7.950;2023-02-28T15:05:00;98960.19;;;30.82
72054;BMP280;59918;51.280;7.950;2023-02-28T15:07:26;98958.06;;;30.40
72054;BMP280;59918;51.280;7.950;2023-02-28T15:10:19;98952.22;;;30.30
72054;BMP280;59918;51.280;7.950;2023-02-28T15:12:56;98953.81;;;30.61
72054;BMP280;59918;51.280;7.950;2023-02-28T15:15:26;98952.84;;;30.79
72054;BMP280;59918;51.280;7.950;2023-02-28T15:17:56;98949.47;;;30.35
72054;BMP280;59918;51.280;7.950;2023-02-28T15:20:24;98945.63;;;29.84
72054;BMP280;59918;51.280;7.950;2023-02-28T15:22:50;98949.56;;;29.86
72054;BMP280;59918;51.280;7.950;2023-02-28T15:25:20;98949.78;;;29.98
72054;BMP280;59918;51.280;7.950;2023-02-28T15:27:50;98944.13;;;30.13
72054;BMP280;59918;51.280;7.950;2023-02-28T15:30:25;98948.59;;;29.56
72054;BMP280;59918;51.280;7.950;2023-02-28T15:33:05;98953.13;;;29.55
72054;BMP280;59918;51.280;7.950;2023-02-28T15:35:32;98953.72;;;29.52
72054;BMP280;59918;51.280;7.950;2023-02-28T15:38:25;98957.97;;;28.87
72054;BMP280;59918;51.280;7.950;2023-02-28T15:40:54;98949.56;;;28.53
72054;BMP280;59918;51.280;7.950;2023-02-28T15:43:27;98957.50;;;28.22
72054;BMP280;59918;51.280;7.950;2023-02-28T15:45:55;98955.03;;;28.12
72054;BMP280;59918;51.280;7.950;2023-02-28T15:48:31;98961.00;;;27.99
72054;BMP280;59918;51.280;7.950;2023-02-28T15:51:02;98967.59;;;28.01
72054;BMP280;59918;51.280;7.950;2023-02-28T15:53:35;98969.00;;;27.76
72054;BMP280;59918;51.280;7.950;2023-02-28T15:56:04;98962.09;;;27.38
72054;BMP280;59918;51.280;7.950;2023-02-28T15:58:31;98968.97;;;26.93
72054;BMP280;59918;51.280;7.950;2023-02-28T16:01:19;98966.28;;;26.03
72054;BMP280;59918;51.280;7.950;2023-02-28T16:03:48;98983.50;;;23.56
72054;BMP280;59918;51.280;7.950;2023-02-28T16:06:34;98982.78;;;23.09
72054;BMP280;59918;51.280;7.950;2023-02-28T16:09:00;98984.81;;;21.99
72054;BMP280;59918;51.280;7.950;2023-02-28T16:11:26;99003.16;;;19.34
72054;BMP280;59918;51.280;7.950;2023-02-28T16:13:52;99010.38;;;17.07
72054;BMP280;59918;51.280;7.950;2023-02-28T16:16:20;99024.13;;;15.31
72054;BMP280;59918;51.280;7.950;2023-02-28T16:18:45;99030.72;;;13.92
72054;BMP280;59918;51.280;7.950;2023-02-28T16:21:10;99037.94;;;12.83
72054;BMP280;59918;51.280;7.950;2023-02-28T16:23:36;99040.06;;;11.90
72054;BMP280;59918;51.280;7.950;2023-02-28T16:26:03;99041.34;;;11.16
72054;BMP280;59918;51.280;7.950;2023-02-28T16:28:35;99047.38;;;10.58
72054;BMP280;59918;51.280;7.950;2023-02-28T16:31:03;99055.22;;;9.98
72054;BMP280;59918;51.280;7.950;2023-02-28T16:33:29;99054.81;;;9.48
72054;BMP280;59918;51.280;7.950;2023-02-28T16:35:54;99062.03;;;9.07
72054;BMP280;59918;51.280;7.950;2023-02-28T16:38:20;99068.19;;;8.74
72054;BMP280;59918;51.280;7.950;2023-02-28T16:40:45;99061.66;;;8.40
72054;BMP280;59918;51.280;7.950;2023-02-28T16:43:17;99066.59;;;8.18